createdAt,value
2019-03-06T00:00:11.188Z,18.23
2019-03-06T00:02:21.087Z,19.85
2019-03-06T00:04:26.325Z,23.10
2019-03-06T00:06:31.620Z,18.85
2019-03-06T00:08:39.079Z,19.57
2019-03-06T00:10:44.383Z,21.62
2019-03-06T00:12:49.588Z,19.80
2019-03-06T00:14:56.419Z,22.75
2019-03-06T00:17:01.651Z,23.15
2019-03-06T00:19:06.928Z,22.15
2019-03-06T00:21:18.131Z,21.27
2019-03-06T00:23:28.383Z,19.75
2019-03-06T00:25:37.499Z,15.80
2019-03-06T00:27:45.299Z,17.37
2019-03-06T00:29:50.536Z,19.15
2019-03-06T00:32:17.554Z,15.88
2019-03-06T00:34:41.068Z,17.12
2019-03-06T00:36:50.120Z,17.02
2019-03-06T00:38:57.005Z,17.05
2019-03-06T00:51:00.114Z,17.80
2019-03-06T00:52:56.472Z,18.65
2019-03-06T00:57:15.323Z,18.25
2019-03-06T00:59:20.540Z,19.98
2019-03-06T01:01:25.816Z,19.15
2019-03-06T01:03:31.031Z,19.67
2019-03-06T01:05:36.248Z,20.02
2019-03-06T01:07:41.460Z,18.52
2019-03-06T01:09:47.172Z,18.50
2019-03-06T01:11:53.968Z,20.15
2019-03-06T01:13:59.173Z,21.45
2019-03-06T01:16:04.415Z,20.77
2019-03-06T01:18:09.725Z,20.27
2019-03-06T01:20:15.224Z,20.52
2019-03-06T01:22:20.436Z,19.45
2019-03-06T01:24:25.729Z,19.85
2019-03-06T01:26:30.932Z,20.35
2019-03-06T01:28:36.155Z,20.43
2019-03-06T01:30:41.360Z,19.87
2019-03-06T01:32:48.221Z,19.82
2019-03-06T01:34:55.141Z,19.32
2019-03-06T01:37:04.666Z,21.40
2019-03-06T01:39:20.239Z,21.62
2019-03-06T01:41:27.564Z,22.10
2019-03-06T01:43:40.620Z,22.17
2019-03-06T01:45:45.999Z,24.37
2019-03-06T01:47:51.306Z,24.37
2019-03-06T01:49:56.571Z,23.22
2019-03-06T01:52:01.780Z,24.20
2019-03-06T01:54:08.732Z,23.65
2019-03-06T01:56:13.932Z,24.92
2019-03-06T01:58:19.138Z,26.00
2019-03-06T02:00:24.708Z,23.90
2019-03-06T02:02:30.275Z,24.10
2019-03-06T02:04:35.485Z,25.00
2019-03-06T02:06:40.695Z,26.55
2019-03-06T02:08:45.984Z,25.52
2019-03-06T02:10:51.264Z,25.65
2019-03-06T02:12:56.541Z,29.90
2019-03-06T02:15:01.820Z,23.98
2019-03-06T02:17:08.190Z,27.55
2019-03-06T02:19:13.404Z,25.43
2019-03-06T02:21:18.616Z,33.33
2019-03-06T02:23:24.787Z,29.30
2019-03-06T02:25:30.376Z,23.92
2019-03-06T02:27:35.585Z,23.95
2019-03-06T02:29:40.859Z,32.33
2019-03-06T02:31:46.148Z,26.60
2019-03-06T02:33:51.358Z,31.48
2019-03-06T02:35:56.570Z,30.88
2019-03-06T02:38:01.784Z,37.90
2019-03-06T02:40:09.404Z,41.98
2019-03-06T02:42:14.613Z,33.35
2019-03-06T02:44:20.104Z,30.97
2019-03-06T02:46:25.296Z,29.85
2019-03-06T02:48:30.537Z,35.10
2019-03-06T02:50:35.813Z,33.92
2019-03-06T02:52:41.042Z,32.98
2019-03-06T02:54:46.712Z,27.40
2019-03-06T02:56:51.921Z,32.38
2019-03-06T02:59:01.443Z,34.73
2019-03-06T03:01:08.369Z,33.30
2019-03-06T03:03:27.164Z,33.23
2019-03-06T03:05:36.975Z,33.15
2019-03-06T03:07:42.275Z,33.38
2019-03-06T03:09:47.477Z,30.92
2019-03-06T03:11:54.825Z,32.05
2019-03-06T03:14:01.133Z,29.10
2019-03-06T03:16:06.597Z,23.85
2019-03-06T03:18:11.885Z,28.00
2019-03-06T03:20:17.171Z,31.55
2019-03-06T03:22:22.440Z,26.27
2019-03-06T03:24:27.648Z,22.90
2019-03-06T03:26:32.884Z,30.32
2019-03-06T03:28:38.097Z,24.43
2019-03-06T03:30:43.601Z,27.20
2019-03-06T03:32:49.005Z,27.50
2019-03-06T03:34:54.254Z,27.58
2019-03-06T03:36:59.480Z,25.17
2019-03-06T03:39:06.233Z,29.40
2019-03-06T03:41:12.705Z,23.67
2019-03-06T03:43:17.912Z,25.77
2019-03-06T03:45:23.153Z,28.80
2019-03-06T03:47:28.357Z,26.62
2019-03-06T03:49:33.737Z,27.32
2019-03-06T03:51:38.946Z,26.52
2019-03-06T03:53:44.144Z,26.23
2019-03-06T03:55:49.424Z,24.72
2019-03-06T03:57:56.379Z,22.82
2019-03-06T04:00:01.592Z,26.17
2019-03-06T04:02:07.152Z,22.48
2019-03-06T04:04:12.404Z,21.12
2019-03-06T04:06:18.905Z,25.08
2019-03-06T04:08:24.139Z,23.70
2019-03-06T04:10:30.503Z,23.40
2019-03-06T04:12:35.778Z,22.50
2019-03-06T04:14:41.150Z,22.85
2019-03-06T04:16:46.380Z,23.25
2019-03-06T04:18:51.584Z,23.32
2019-03-06T04:20:56.793Z,23.95
2019-03-06T04:23:03.060Z,24.43
2019-03-06T04:25:09.509Z,25.50
2019-03-06T04:27:14.702Z,24.25
2019-03-06T04:29:20.012Z,48.98
2019-03-06T04:31:25.286Z,26.10
2019-03-06T04:33:30.565Z,24.55
2019-03-06T04:35:35.780Z,24.52
2019-03-06T04:37:41.043Z,23.00
2019-03-06T04:39:46.252Z,23.57
2019-03-06T04:41:51.464Z,25.08
2019-03-06T04:43:56.667Z,25.02
2019-03-06T04:46:01.880Z,27.30
2019-03-06T04:48:07.267Z,27.77
2019-03-06T04:50:14.371Z,30.15
2019-03-06T04:52:20.953Z,33.23
2019-03-06T04:54:27.142Z,37.28
2019-03-06T04:56:32.408Z,42.30
2019-03-06T04:58:37.615Z,37.50
2019-03-06T05:00:42.828Z,41.90
2019-03-06T05:02:48.039Z,42.40
2019-03-06T05:04:53.251Z,46.08
2019-03-06T05:06:58.659Z,52.43
2019-03-06T05:09:05.286Z,57.03
2019-03-06T05:11:12.176Z,58.92
2019-03-06T05:13:17.396Z,57.78
2019-03-06T05:15:23.179Z,56.35
2019-03-06T05:17:38.979Z,53.85
2019-03-06T05:19:44.200Z,51.08
2019-03-06T05:21:51.161Z,55.63
2019-03-06T05:23:56.840Z,123.38
2019-03-06T05:26:02.068Z,121.85
2019-03-06T05:28:07.287Z,116.25
2019-03-06T05:30:13.913Z,102.38
2019-03-06T05:32:33.280Z,72.90
2019-03-06T05:34:38.492Z,79.97
2019-03-06T05:36:46.969Z,72.60
2019-03-06T05:39:04.462Z,68.20
2019-03-06T05:41:11.263Z,61.60
2019-03-06T05:43:16.475Z,60.28
2019-03-06T05:45:22.011Z,56.23
2019-03-06T05:47:27.291Z,51.25
2019-03-06T05:49:34.172Z,54.88
2019-03-06T05:51:39.462Z,48.00
2019-03-06T05:53:44.664Z,48.63
2019-03-06T05:55:49.868Z,47.80
2019-03-06T05:57:55.079Z,41.80
2019-03-06T06:00:00.723Z,43.02
2019-03-06T06:02:06.003Z,43.15
2019-03-06T06:04:11.419Z,45.38
2019-03-06T06:06:16.628Z,44.45
2019-03-06T06:08:21.831Z,40.98
2019-03-06T06:10:27.067Z,47.13
2019-03-06T06:12:32.278Z,44.53
2019-03-06T06:14:38.691Z,41.73
2019-03-06T06:16:43.968Z,45.52
2019-03-06T06:18:49.167Z,41.23
2019-03-06T06:21:02.048Z,46.30
2019-03-06T06:23:08.900Z,53.60
2019-03-06T06:25:14.277Z,48.90
2019-03-06T06:27:19.495Z,44.33
2019-03-06T06:29:24.709Z,61.28
2019-03-06T06:31:29.916Z,59.88
2019-03-06T06:33:35.140Z,59.93
2019-03-06T06:35:40.445Z,56.02
2019-03-06T06:37:45.672Z,61.65
2019-03-06T06:39:51.044Z,66.87
2019-03-06T06:41:56.263Z,67.25
2019-03-06T06:44:01.773Z,61.92
2019-03-06T06:46:07.652Z,59.33
2019-03-06T06:48:17.569Z,54.73
2019-03-06T06:50:23.124Z,51.35
2019-03-06T06:52:37.184Z,42.70
2019-03-06T06:55:05.420Z,45.23
2019-03-06T06:57:22.428Z,50.80
2019-03-06T06:59:32.288Z,51.18
2019-03-06T07:02:06.687Z,62.35
2019-03-06T07:04:39.795Z,57.07
2019-03-06T07:06:49.396Z,74.40
2019-03-06T07:09:11.168Z,61.23
2019-03-06T07:11:27.199Z,58.35
2019-03-06T07:13:36.827Z,55.17
2019-03-06T07:15:49.837Z,59.13
2019-03-06T07:18:11.942Z,48.17
2019-03-06T07:20:19.056Z,44.18
2019-03-06T07:22:34.928Z,44.80
2019-03-06T07:24:44.820Z,44.67
2019-03-06T07:27:00.580Z,38.45
2019-03-06T07:29:07.506Z,38.50
2019-03-06T07:31:30.840Z,38.25
2019-03-06T07:33:38.030Z,38.90
2019-03-06T07:35:50.669Z,36.48
2019-03-06T07:37:57.508Z,35.40
2019-03-06T07:40:04.183Z,36.75
2019-03-06T07:42:14.111Z,36.40
2019-03-06T07:44:29.614Z,37.50
2019-03-06T07:46:32.482Z,35.60
2019-03-06T07:48:39.412Z,35.40
2019-03-06T07:50:49.266Z,35.68
2019-03-06T07:53:32.191Z,30.90
2019-03-06T07:55:39.208Z,32.53
2019-03-06T07:58:20.908Z,36.48
2019-03-06T08:00:26.392Z,32.60
2019-03-06T08:02:57.539Z,30.75
2019-03-06T08:05:02.819Z,31.23
2019-03-06T08:07:15.245Z,31.73
2019-03-06T08:09:20.811Z,33.35
2019-03-06T08:11:27.671Z,28.23
2019-03-06T08:13:35.077Z,31.27
2019-03-06T08:15:41.992Z,28.00
2019-03-06T08:17:51.496Z,27.98
2019-03-06T08:20:13.803Z,27.65
2019-03-06T08:22:35.752Z,26.02
2019-03-06T08:24:58.899Z,27.93
2019-03-06T08:27:04.115Z,27.98
2019-03-06T08:29:09.404Z,26.00
2019-03-06T08:31:16.262Z,25.48
2019-03-06T08:33:21.508Z,25.72
2019-03-06T08:35:26.790Z,26.02
2019-03-06T08:37:32.212Z,25.92
2019-03-06T08:39:37.436Z,25.35
2019-03-06T08:41:43.012Z,24.02
2019-03-06T08:43:48.293Z,26.48
2019-03-06T08:46:02.357Z,27.10
2019-03-06T08:48:09.208Z,26.23
2019-03-06T08:50:25.071Z,25.35
2019-03-06T08:52:34.633Z,25.75
2019-03-06T08:54:43.931Z,26.68
2019-03-06T08:56:56.848Z,26.60
2019-03-06T08:59:03.741Z,23.45
2019-03-06T09:01:18.963Z,23.18
2019-03-06T09:03:34.982Z,23.42
2019-03-06T09:05:57.357Z,23.92
2019-03-06T09:08:13.240Z,22.77
2019-03-06T09:10:38.165Z,23.05
2019-03-06T09:12:45.048Z,20.68
2019-03-06T09:15:08.260Z,22.65
2019-03-06T09:17:31.444Z,23.00
2019-03-06T09:22:11.475Z,19.05
2019-03-06T09:24:34.020Z,19.55
2019-03-06T09:26:46.679Z,21.42
2019-03-06T09:29:08.650Z,21.27
2019-03-06T09:31:15.510Z,19.62
2019-03-06T09:33:28.542Z,16.35
2019-03-06T09:35:51.397Z,16.95
2019-03-06T09:37:59.428Z,15.83
2019-03-06T09:40:27.743Z,15.45
2019-03-06T09:42:34.673Z,17.12
2019-03-06T09:44:41.528Z,15.65
2019-03-06T09:46:48.392Z,20.10
2019-03-06T09:48:55.244Z,19.52
2019-03-06T09:51:02.105Z,18.17
2019-03-06T09:53:25.536Z,17.50
2019-03-06T09:55:35.585Z,16.85
2019-03-06T09:57:48.315Z,19.15
2019-03-06T10:00:12.631Z,18.35
2019-03-06T10:02:35.875Z,16.62
2019-03-06T10:04:44.475Z,18.40
2019-03-06T10:06:51.378Z,16.32
2019-03-06T10:09:09.812Z,16.32
2019-03-06T10:11:20.071Z,15.60
2019-03-06T10:13:31.982Z,12.33
2019-03-06T10:15:39.800Z,12.98
2019-03-06T10:17:46.665Z,12.25
2019-03-06T10:19:56.448Z,14.40
2019-03-06T10:22:01.684Z,14.25
2019-03-06T10:24:06.900Z,13.68
2019-03-06T10:26:12.127Z,14.65
2019-03-06T10:28:27.334Z,14.98
2019-03-06T10:30:24.512Z,14.18
2019-03-06T10:32:29.956Z,13.75
2019-03-06T10:34:35.180Z,11.45
2019-03-06T10:36:40.765Z,10.08
2019-03-06T10:38:45.980Z,11.60
2019-03-06T10:40:51.404Z,12.40
2019-03-06T10:42:56.617Z,12.33
2019-03-06T10:45:01.837Z,12.37
2019-03-06T10:47:07.330Z,14.10
2019-03-06T10:49:12.978Z,12.10
2019-03-06T10:51:18.455Z,10.72
2019-03-06T10:53:23.681Z,10.28
2019-03-06T10:55:28.883Z,9.08
2019-03-06T10:57:34.300Z,11.50
2019-03-06T10:59:39.617Z,10.18
2019-03-06T11:01:44.820Z,10.50
2019-03-06T11:03:51.940Z,9.40
2019-03-06T11:05:57.183Z,10.78
2019-03-06T11:08:02.388Z,7.28
2019-03-06T11:10:12.969Z,9.25
2019-03-06T11:12:18.756Z,10.68
2019-03-06T11:14:24.036Z,9.68
2019-03-06T11:16:30.130Z,8.60
2019-03-06T11:18:37.159Z,9.90
2019-03-06T11:20:42.391Z,8.75
2019-03-06T11:22:47.724Z,9.18
2019-03-06T11:24:52.981Z,9.93
2019-03-06T11:26:58.180Z,9.53
2019-03-06T11:29:04.973Z,9.43
2019-03-06T11:31:10.255Z,9.63
2019-03-06T11:33:15.731Z,10.28
2019-03-06T11:35:23.046Z,9.10
2019-03-06T11:37:28.304Z,9.10
2019-03-06T11:39:33.584Z,10.85
2019-03-06T11:41:38.868Z,10.08
2019-03-06T11:43:44.099Z,11.25
2019-03-06T11:45:49.790Z,8.35
2019-03-06T11:47:55.059Z,5.92
2019-03-06T11:50:00.673Z,9.08
2019-03-06T11:52:06.554Z,8.03
2019-03-06T11:54:12.864Z,7.90
2019-03-06T11:56:18.189Z,9.08
2019-03-06T11:58:23.596Z,8.35
2019-03-06T12:00:39.582Z,7.92
2019-03-06T12:02:45.232Z,7.97
2019-03-06T12:04:51.108Z,8.33
2019-03-06T12:06:56.392Z,9.60
2019-03-06T12:09:01.663Z,8.55
2019-03-06T12:11:08.561Z,22.17
2019-03-06T12:13:17.245Z,11.20
2019-03-06T12:15:22.539Z,11.65
2019-03-06T12:17:27.752Z,9.68
2019-03-06T12:19:32.960Z,10.40
2019-03-06T12:21:38.201Z,10.45
2019-03-06T12:23:43.684Z,11.18
2019-03-06T12:25:50.331Z,6.12
2019-03-06T12:27:55.543Z,8.28
2019-03-06T12:30:00.836Z,10.85
2019-03-06T12:32:06.561Z,11.43
2019-03-06T12:34:11.799Z,11.08
2019-03-06T12:36:17.015Z,8.98
2019-03-06T12:38:22.300Z,9.95
2019-03-06T12:40:28.351Z,10.45
2019-03-06T12:42:33.581Z,10.68
2019-03-06T12:44:39.876Z,10.18
2019-03-06T12:46:45.184Z,8.00
2019-03-06T12:48:54.236Z,7.60
2019-03-06T12:50:59.622Z,9.25
2019-03-06T12:53:04.862Z,9.43
2019-03-06T12:55:11.212Z,7.72
2019-03-06T12:57:16.433Z,8.60
2019-03-06T12:59:21.664Z,10.40
2019-03-06T13:01:26.868Z,8.85
2019-03-06T13:03:32.076Z,9.45
2019-03-06T13:05:37.287Z,8.90
2019-03-06T13:07:42.576Z,9.35
2019-03-06T13:09:47.944Z,10.82
2019-03-06T13:11:53.324Z,8.68
2019-03-06T13:13:58.934Z,9.60
2019-03-06T13:16:04.144Z,10.43
2019-03-06T13:18:11.015Z,13.30
2019-03-06T13:20:16.259Z,10.08
2019-03-06T13:22:21.639Z,9.95
2019-03-06T13:24:28.123Z,10.13
2019-03-06T13:26:33.334Z,10.38
2019-03-06T13:28:38.612Z,10.30
2019-03-06T13:30:43.824Z,8.93
2019-03-06T13:32:53.337Z,8.95
2019-03-06T13:34:59.728Z,9.60
2019-03-06T13:37:04.968Z,9.23
2019-03-06T13:39:10.576Z,7.33
2019-03-06T13:41:17.455Z,8.98
2019-03-06T13:43:22.672Z,8.85
2019-03-06T13:45:27.890Z,8.65
2019-03-06T13:47:33.259Z,8.30
2019-03-06T13:49:38.481Z,7.55
2019-03-06T13:51:43.688Z,8.53
2019-03-06T13:53:48.900Z,8.10
2019-03-06T13:55:54.116Z,7.10
2019-03-06T13:57:59.319Z,7.12
2019-03-06T14:00:10.439Z,6.95
2019-03-06T14:02:15.798Z,6.20
2019-03-06T14:04:21.072Z,5.92
2019-03-06T14:06:26.360Z,6.80
2019-03-06T14:08:31.856Z,5.70
2019-03-06T14:10:37.060Z,5.53
2019-03-06T14:12:42.273Z,7.08
2019-03-06T14:14:47.613Z,6.78
2019-03-06T14:16:52.895Z,5.87
2019-03-06T14:18:58.119Z,5.20
2019-03-06T14:21:03.401Z,5.00
2019-03-06T14:23:08.671Z,6.15
2019-03-06T14:25:13.944Z,6.10
2019-03-06T14:27:19.320Z,4.85
2019-03-06T14:29:25.652Z,4.20
2019-03-06T14:31:30.997Z,4.40
2019-03-06T14:33:36.221Z,4.97
2019-03-06T14:35:41.488Z,5.20
2019-03-06T14:37:46.761Z,5.85
2019-03-06T14:39:52.040Z,4.85
2019-03-06T14:41:57.577Z,5.50
2019-03-06T14:44:02.736Z,6.08
2019-03-06T14:46:16.110Z,5.47
2019-03-06T14:48:16.128Z,4.85
2019-03-06T14:50:21.506Z,6.20
2019-03-06T14:52:27.792Z,7.83
2019-03-06T14:54:32.996Z,9.93
2019-03-06T14:56:38.204Z,7.83
2019-03-06T14:58:43.444Z,9.98
2019-03-06T15:00:48.662Z,9.98
2019-03-06T15:02:54.132Z,6.10
2019-03-06T15:04:59.515Z,6.40
2019-03-06T15:07:06.220Z,6.22
2019-03-06T15:09:16.529Z,5.15
2019-03-06T15:11:21.746Z,6.35
2019-03-06T15:13:26.960Z,7.10
2019-03-06T15:15:32.270Z,10.60
2019-03-06T15:17:37.488Z,8.25
2019-03-06T15:19:42.765Z,6.67
2019-03-06T15:21:47.971Z,7.35
2019-03-06T15:23:53.560Z,7.12
2019-03-06T15:25:58.945Z,7.00
2019-03-06T15:28:04.688Z,7.47
2019-03-06T15:30:12.248Z,6.83
2019-03-06T15:32:17.452Z,8.60
2019-03-06T15:34:22.669Z,10.15
2019-03-06T15:36:27.976Z,13.50
2019-03-06T15:38:33.185Z,9.65
2019-03-06T15:40:40.461Z,11.78
2019-03-06T15:42:45.893Z,10.48
2019-03-06T15:44:51.376Z,9.23
2019-03-06T15:46:56.653Z,16.10
2019-03-06T15:49:02.688Z,15.78
2019-03-06T15:51:07.911Z,10.28
2019-03-06T15:53:23.849Z,17.05
2019-03-06T15:55:25.100Z,12.35
2019-03-06T15:57:30.320Z,11.60
2019-03-06T15:59:35.608Z,10.95
2019-03-06T16:01:40.904Z,11.03
2019-03-06T16:03:47.686Z,11.45
2019-03-06T16:05:54.165Z,11.15
2019-03-06T16:07:59.386Z,10.72
2019-03-06T16:10:08.008Z,11.12
2019-03-06T16:12:14.556Z,12.70
2019-03-06T16:14:19.776Z,15.78
2019-03-06T16:16:24.988Z,18.98
2019-03-06T16:18:30.200Z,22.62
2019-03-06T16:20:35.493Z,20.02
2019-03-06T16:22:40.707Z,19.10
2019-03-06T16:24:45.917Z,17.75
2019-03-06T16:26:51.131Z,17.45
2019-03-06T16:28:56.412Z,17.80
2019-03-06T16:31:01.697Z,17.67
2019-03-06T16:33:06.914Z,18.98
2019-03-06T16:35:12.116Z,20.10
2019-03-06T16:37:17.328Z,28.45
2019-03-06T16:39:22.581Z,35.95
2019-03-06T16:41:27.756Z,43.48
2019-03-06T16:43:33.155Z,40.15
2019-03-06T16:45:39.513Z,37.53
2019-03-06T16:47:44.880Z,31.25
2019-03-06T16:49:50.090Z,30.12
2019-03-06T16:51:55.363Z,29.42
2019-03-06T16:54:00.639Z,25.68
2019-03-06T16:56:06.060Z,28.35
2019-03-06T16:58:11.272Z,28.20
2019-03-06T17:00:25.004Z,29.00
2019-03-06T17:02:30.276Z,30.92
2019-03-06T17:04:35.491Z,34.60
2019-03-06T17:06:40.713Z,42.62
2019-03-06T17:08:46.191Z,49.25
2019-03-06T17:10:51.416Z,54.60
2019-03-06T17:12:56.636Z,59.38
2019-03-06T17:15:01.909Z,55.55
2019-03-06T17:17:08.630Z,57.85
2019-03-06T17:19:13.844Z,55.17
2019-03-06T17:21:19.152Z,57.27
2019-03-06T17:23:24.470Z,57.10
2019-03-06T17:25:30.058Z,58.23
2019-03-06T17:27:35.268Z,61.63
2019-03-06T17:29:40.961Z,74.05
2019-03-06T17:31:47.804Z,89.90
2019-03-06T17:33:55.558Z,182.47
2019-03-06T17:36:00.977Z,71.85
2019-03-06T17:38:08.503Z,83.95
2019-03-06T17:40:14.080Z,92.75
2019-03-06T17:42:19.369Z,77.50
2019-03-06T17:47:23.029Z,86.08
2019-03-06T17:49:28.236Z,84.85
2019-03-06T17:51:33.451Z,81.78
2019-03-06T17:53:38.680Z,91.50
2019-03-06T17:55:43.892Z,90.57
2019-03-06T17:57:49.120Z,101.27
2019-03-06T17:59:55.004Z,95.00
2019-03-06T18:02:02.584Z,85.62
2019-03-06T18:04:15.924Z,85.77
2019-03-06T18:06:21.469Z,86.67
2019-03-06T18:08:26.684Z,77.05
2019-03-06T18:10:32.096Z,92.90
2019-03-06T18:12:37.335Z,84.20
2019-03-06T18:14:42.545Z,97.72
2019-03-06T18:16:47.760Z,89.50
2019-03-06T18:18:53.053Z,125.02
2019-03-06T18:20:58.277Z,119.00
2019-03-06T18:23:03.570Z,118.60
2019-03-06T18:25:11.631Z,129.80
2019-03-06T18:27:25.913Z,131.30
2019-03-06T18:29:24.340Z,118.02
2019-03-06T18:31:29.591Z,136.85
2019-03-06T18:33:34.809Z,129.38
2019-03-06T18:35:40.036Z,100.18
2019-03-06T18:37:45.364Z,86.25
2019-03-06T18:39:50.743Z,110.72
2019-03-06T18:41:55.951Z,99.95
2019-03-06T18:44:02.378Z,106.32
2019-03-06T18:46:07.860Z,91.42
2019-03-06T18:48:13.082Z,97.92
2019-03-06T18:50:19.239Z,75.30
2019-03-06T18:52:24.444Z,71.82
2019-03-06T18:54:29.652Z,70.95
2019-03-06T18:56:34.881Z,82.22
2019-03-06T18:58:40.092Z,85.53
2019-03-06T19:00:45.309Z,88.92
2019-03-06T19:02:50.524Z,73.50
2019-03-06T19:04:56.012Z,63.60
2019-03-06T19:07:01.233Z,62.95
2019-03-06T19:09:07.085Z,61.45
2019-03-06T19:11:16.907Z,66.37
2019-03-06T19:13:20.956Z,65.78
2019-03-06T19:15:29.229Z,65.08
2019-03-06T19:17:34.445Z,59.93
2019-03-06T19:19:39.728Z,57.73
2019-03-06T19:21:44.976Z,53.80
2019-03-06T19:23:50.189Z,48.33
2019-03-06T19:25:55.475Z,43.85
2019-03-06T19:28:00.891Z,44.48
2019-03-06T19:30:12.214Z,43.70
2019-03-06T19:32:18.083Z,42.95
2019-03-06T19:34:23.296Z,40.95
2019-03-06T19:36:28.505Z,43.33
2019-03-06T19:38:33.720Z,41.02
2019-03-06T19:40:38.956Z,39.23
2019-03-06T19:42:44.160Z,39.15
2019-03-06T19:44:49.665Z,37.20
2019-03-06T19:46:55.179Z,33.70
2019-03-06T19:49:00.453Z,36.77
2019-03-06T19:51:06.428Z,34.95
2019-03-06T19:53:11.676Z,28.98
2019-03-06T19:55:17.823Z,30.05
2019-03-06T19:57:23.033Z,30.40
2019-03-06T19:59:28.250Z,30.40
2019-03-06T20:01:33.457Z,33.05
2019-03-06T20:03:38.660Z,33.50
2019-03-06T20:05:43.884Z,35.63
2019-03-06T20:07:49.095Z,36.63
2019-03-06T20:09:54.495Z,36.73
2019-03-06T20:12:00.182Z,38.13
2019-03-06T20:14:05.401Z,38.38
2019-03-06T20:16:10.599Z,34.43
2019-03-06T20:18:15.817Z,36.90
2019-03-06T20:20:21.132Z,39.13
2019-03-06T20:22:26.407Z,39.20
2019-03-06T20:24:31.627Z,43.75
2019-03-06T20:26:37.974Z,47.05
2019-03-06T20:28:43.275Z,42.50
2019-03-06T20:30:48.504Z,39.58
2019-03-06T20:32:53.771Z,32.75
2019-03-06T20:34:58.980Z,30.23
2019-03-06T20:37:04.533Z,29.80
2019-03-06T20:39:09.768Z,27.67
2019-03-06T20:41:16.574Z,25.02
2019-03-06T20:43:23.053Z,21.23
2019-03-06T20:45:29.344Z,24.40
2019-03-06T20:47:34.548Z,24.32
2019-03-06T20:49:39.760Z,23.90
2019-03-06T20:51:44.993Z,23.52
2019-03-06T20:53:50.193Z,25.65
2019-03-06T20:55:55.400Z,23.70
2019-03-06T20:58:00.611Z,24.20
2019-03-06T21:00:14.547Z,20.95
2019-03-06T21:02:19.996Z,19.82
2019-03-06T21:04:25.225Z,17.82
2019-03-06T21:06:33.499Z,19.35
2019-03-06T21:08:37.267Z,16.02
2019-03-06T21:10:42.548Z,18.85
2019-03-06T21:12:47.747Z,19.00
2019-03-06T21:14:52.949Z,19.42
2019-03-06T21:16:59.305Z,20.45
2019-03-06T21:19:04.509Z,20.30
2019-03-06T21:21:09.721Z,21.07
2019-03-06T21:23:15.005Z,22.25
2019-03-06T21:25:21.143Z,22.13
2019-03-06T21:27:27.422Z,21.80
2019-03-06T21:29:32.640Z,21.23
2019-03-06T21:31:37.856Z,21.93
2019-03-06T21:33:43.064Z,22.85
2019-03-06T21:35:48.273Z,31.80
2019-03-06T21:37:53.478Z,28.15
2019-03-06T21:39:58.680Z,25.80
2019-03-06T21:42:03.924Z,26.20
2019-03-06T21:44:09.127Z,24.72
2019-03-06T21:46:14.327Z,23.38
2019-03-06T21:48:19.608Z,24.23
2019-03-06T21:50:24.829Z,22.32
2019-03-06T21:52:30.191Z,24.47
2019-03-06T21:54:35.480Z,27.75
2019-03-06T21:56:40.683Z,26.50
2019-03-06T21:58:45.883Z,24.30
2019-03-06T22:00:51.196Z,20.30
2019-03-06T22:02:56.488Z,19.57
2019-03-06T22:05:01.703Z,16.87
2019-03-06T22:07:08.407Z,16.82
2019-03-06T22:09:13.892Z,19.20
2019-03-06T22:11:19.631Z,16.37
2019-03-06T22:13:24.944Z,16.00
2019-03-06T22:15:30.143Z,14.65
2019-03-06T22:17:35.347Z,15.85
2019-03-06T22:19:41.235Z,18.25
2019-03-06T22:21:46.468Z,15.90
2019-03-06T22:23:51.674Z,13.72
2019-03-06T22:25:56.962Z,14.07
2019-03-06T22:28:02.170Z,9.60
2019-03-06T22:30:16.350Z,13.15
2019-03-06T22:32:21.583Z,12.05
2019-03-06T22:34:28.360Z,13.25
2019-03-06T22:36:33.564Z,15.48
2019-03-06T22:38:38.776Z,12.95
2019-03-06T22:40:43.987Z,13.83
2019-03-06T22:42:49.210Z,14.78
2019-03-06T22:44:54.419Z,14.30
2019-03-06T22:46:59.697Z,13.03
2019-03-06T22:49:05.006Z,14.23
2019-03-06T22:51:10.292Z,13.20
2019-03-06T22:53:15.506Z,15.05
2019-03-06T22:55:21.072Z,14.55
2019-03-06T22:57:27.206Z,13.58
2019-03-06T22:59:32.560Z,12.23
2019-03-06T23:01:38.200Z,13.65
2019-03-06T23:03:45.256Z,13.72
2019-03-06T23:05:50.532Z,13.50
2019-03-06T23:07:55.737Z,13.38
2019-03-06T23:10:01.038Z,12.00
2019-03-06T23:12:07.836Z,12.30
2019-03-06T23:14:13.147Z,12.43
2019-03-06T23:16:19.748Z,12.30
2019-03-06T23:18:25.116Z,12.70
2019-03-06T23:20:30.320Z,12.45
2019-03-06T23:22:35.936Z,10.55
2019-03-06T23:24:41.144Z,9.38
2019-03-06T23:26:46.344Z,11.10
2019-03-06T23:28:51.559Z,10.65
2019-03-06T23:30:56.831Z,10.45
2019-03-06T23:33:02.036Z,12.13
2019-03-06T23:35:07.555Z,11.00
2019-03-06T23:37:12.759Z,10.15
2019-03-06T23:39:18.449Z,10.75
2019-03-06T23:41:23.860Z,11.05
2019-03-06T23:43:29.232Z,11.70
2019-03-06T23:45:34.437Z,11.22
2019-03-06T23:47:39.846Z,12.73
2019-03-06T23:49:45.347Z,11.53
2019-03-06T23:51:52.585Z,11.05
2019-03-06T23:53:57.808Z,10.48
2019-03-06T23:56:03.358Z,7.70
2019-03-06T23:58:08.824Z,10.20
